Time;durP1;ratioP1;P1;durP2;ratioP2;P2;SDS_P1;SDS_P2;PMS_P1;PMS_P2;Temp;Humidity;BMP_temperature;BMP_pressure;BME280_temperature;BME280_humidity;BME280_pressure;Samples;Min_cycle;Max_cycle;Signal;HPM_P1;HPM_P2
2023/08/02 00:02:03;;;;;;;12.10;9.00;;;;;;;;;;742040;190;916676;-65
2023/08/02 00:04:29;;;;;;;12.90;8.40;;;;;;;;;;737977;190;920206;-64
2023/08/02 00:06:55;;;;;;;12.80;7.77;;;;;;;;;;738591;190;918800;-65
2023/08/02 00:09:20;;;;;;;19.57;8.70;;;;;;;;;;742325;190;919318;-58
2023/08/02 00:11:46;;;;;;;10.80;8.50;;;;;;;;;;737754;190;919632;-64
2023/08/02 00:14:12;;;;;;;14.90;8.57;;;;;;;;;;738165;190;920436;-58
2023/08/02 00:16:38;;;;;;;20.03;8.50;;;;;;;;;;737454;190;919293;-58
2023/08/02 00:19:04;;;;;;;11.07;8.57;;;;;;;;;;739816;190;862339;-58
2023/08/02 00:21:30;;;;;;;16.60;8.50;;;;;;;;;;738907;190;914578;-58
2023/08/02 00:23:55;;;;;;;15.40;10.37;;;;;;;;;;733299;191;916781;-58
2023/08/02 00:26:22;;;;;;;15.87;7.87;;;;;;;;;;743076;190;918246;-64
2023/08/02 00:28:47;;;;;;;15.97;7.70;;;;;;;;;;737436;190;919783;-64
2023/08/02 00:31:13;;;;;;;14.05;8.70;;;;;;;;;;738218;190;919479;-58
2023/08/02 00:33:39;;;;;;;13.40;8.80;;;;;;;;;;734698;191;818755;-58
2023/08/02 00:36:05;;;;;;;14.67;7.87;;;;;;;;;;731984;190;914172;-64
2023/08/02 00:38:31;;;;;;;11.30;8.10;;;;;;;;;;736429;190;918423;-64
2023/08/02 00:40:56;;;;;;;16.13;9.30;;;;;;;;;;742524;190;919091;-58
2023/08/02 00:43:22;;;;;;;12.88;8.70;;;;;;;;;;737370;190;921193;-64
2023/08/02 00:45:48;;;;;;;15.63;8.90;;;;;;;;;;737960;190;920953;-57
2023/08/02 00:48:14;;;;;;;12.93;8.80;;;;;;;;;;738001;190;918846;-58
2023/08/02 00:50:40;;;;;;;12.33;8.67;;;;;;;;;;739620;190;917480;-58
2023/08/02 00:53:06;;;;;;;11.40;7.50;;;;;;;;;;736533;190;918820;-58
2023/08/02 00:55:33;;;;;;;14.57;8.83;;;;;;;;;;738536;190;850997;-58
2023/08/02 00:57:57;;;;;;;14.13;8.37;;;;;;;;;;742219;190;919538;-58
2023/08/02 01:00:23;;;;;;;12.70;7.67;;;;;;;;;;738219;190;917556;-58
2023/08/02 01:02:49;;;;;;;11.10;8.10;;;;;;;;;;738306;190;919147;-64
2023/08/02 01:05:15;;;;;;;15.87;8.57;;;;;;;;;;743112;190;817682;-58
2023/08/02 01:07:44;;;;;;;13.23;9.27;;;;;;;;;;736573;190;919054;-58
2023/08/02 01:10:24;;;;;;;15.30;10.97;;;;;;;;;;736643;190;918767;-59
2023/08/02 01:12:50;;;;;;;19.90;10.07;;;;;;;;;;733681;190;917467;-65
2023/08/02 01:15:16;;;;;;;20.70;9.50;;;;;;;;;;734756;190;913816;-65
2023/08/02 01:17:42;;;;;;;14.70;10.33;;;;;;;;;;737262;191;837804;-65
2023/08/02 01:20:08;;;;;;;14.03;9.17;;;;;;;;;;729485;191;915071;-64
2023/08/02 01:22:34;;;;;;;19.60;10.03;;;;;;;;;;731670;192;920557;-59
2023/08/02 01:25:00;;;;;;;15.07;8.67;;;;;;;;;;743175;190;910074;-59
2023/08/02 01:27:26;;;;;;;15.90;10.53;;;;;;;;;;738242;190;918794;-65
2023/08/02 01:29:52;;;;;;;13.80;10.77;;;;;;;;;;738425;189;925890;-64
2023/08/02 01:32:18;;;;;;;13.87;9.90;;;;;;;;;;742834;190;941512;-65
2023/08/02 01:34:44;;;;;;;16.67;10.17;;;;;;;;;;738095;190;921004;-59
2023/08/02 01:37:10;;;;;;;13.50;11.03;;;;;;;;;;738729;190;934215;-59
2023/08/02 01:39:36;;;;;;;15.43;11.40;;;;;;;;;;738352;190;920979;-59
2023/08/02 01:42:01;;;;;;;14.87;10.70;;;;;;;;;;743008;190;918871;-59
2023/08/02 01:44:27;;;;;;;15.40;10.53;;;;;;;;;;738593;190;917826;-66
2023/08/02 01:46:53;;;;;;;14.90;11.27;;;;;;;;;;737991;189;917893;-65
2023/08/02 01:49:21;;;;;;;22.37;13.37;;;;;;;;;;743767;190;817894;-65
2023/08/02 01:51:45;;;;;;;17.43;12.67;;;;;;;;;;738548;190;900527;-59
2023/08/02 01:54:11;;;;;;;15.50;11.60;;;;;;;;;;740297;190;815787;-59
2023/08/02 01:56:37;;;;;;;14.83;11.10;;;;;;;;;;744821;190;811859;-58
2023/08/02 01:59:02;;;;;;;21.53;12.23;;;;;;;;;;737672;190;917160;-65
2023/08/02 02:01:28;;;;;;;17.87;13.43;;;;;;;;;;737656;190;917153;-65
2023/08/02 02:03:54;;;;;;;23.80;12.07;;;;;;;;;;737980;190;938241;-59
2023/08/02 02:06:20;;;;;;;25.33;13.00;;;;;;;;;;739214;190;927994;-59
2023/08/02 02:08:46;;;;;;;16.53;12.03;;;;;;;;;;737554;190;914955;-59
2023/08/02 02:11:12;;;;;;;23.40;13.40;;;;;;;;;;737333;190;917474;-59
2023/08/02 02:13:37;;;;;;;28.30;12.93;;;;;;;;;;742432;190;919086;-58
2023/08/02 02:16:03;;;;;;;20.57;13.80;;;;;;;;;;736478;190;920980;-59
2023/08/02 02:18:29;;;;;;;18.13;13.10;;;;;;;;;;733300;191;927569;-66
2023/08/02 02:20:55;;;;;;;21.73;14.17;;;;;;;;;;739319;191;818372;-65
2023/08/02 02:23:21;;;;;;;19.43;13.67;;;;;;;;;;733026;191;923405;-59
2023/08/02 02:25:47;;;;;;;18.30;13.27;;;;;;;;;;732601;192;916549;-59
2023/08/02 02:28:13;;;;;;;21.47;13.47;;;;;;;;;;736019;192;919361;-65
2023/08/02 02:30:38;;;;;;;16.03;12.87;;;;;;;;;;731474;191;919427;-59
2023/08/02 02:33:04;;;;;;;16.93;13.17;;;;;;;;;;737201;190;919720;-59
2023/08/02 02:35:30;;;;;;;18.37;13.10;;;;;;;;;;738194;190;846280;-59
2023/08/02 02:37:56;;;;;;;18.67;12.90;;;;;;;;;;741507;190;936462;-59
2023/08/02 02:40:22;;;;;;;21.10;13.60;;;;;;;;;;736945;189;921488;-59
2023/08/02 02:42:48;;;;;;;18.40;13.13;;;;;;;;;;740635;189;917645;-59
2023/08/02 02:45:14;;;;;;;17.13;13.57;;;;;;;;;;745642;190;910507;-59
2023/08/02 02:47:39;;;;;;;16.80;12.30;;;;;;;;;;738195;190;919818;-59
2023/08/02 02:50:05;;;;;;;18.30;11.07;;;;;;;;;;741331;190;834977;-61
2023/08/02 02:52:31;;;;;;;20.80;12.30;;;;;;;;;;743315;190;820036;-59
2023/08/02 02:54:57;;;;;;;22.53;13.13;;;;;;;;;;737577;190;919463;-66
2023/08/02 02:57:23;;;;;;;16.53;11.83;;;;;;;;;;738193;190;924914;-66
2023/08/02 02:59:49;;;;;;;19.70;12.53;;;;;;;;;;738643;190;919691;-59
2023/08/02 03:02:15;;;;;;;15.60;13.00;;;;;;;;;;737697;190;917131;-58
2023/08/02 03:04:41;;;;;;;20.03;12.40;;;;;;;;;;737443;190;816295;-59
2023/08/02 03:07:06;;;;;;;25.83;11.90;;;;;;;;;;737818;190;920167;-59
2023/08/02 03:09:32;;;;;;;21.23;11.97;;;;;;;;;;742550;190;918727;-59
2023/08/02 03:11:58;;;;;;;18.90;12.10;;;;;;;;;;739507;190;919003;-59
2023/08/02 03:14:24;;;;;;;26.67;13.80;;;;;;;;;;736737;190;918887;-59
2023/08/02 03:16:50;;;;;;;27.00;13.00;;;;;;;;;;744333;190;875434;-66
2023/08/02 03:19:16;;;;;;;31.43;13.23;;;;;;;;;;738360;190;889457;-66
2023/08/02 03:21:41;;;;;;;79.27;13.67;;;;;;;;;;736787;190;921936;-66
2023/08/02 03:24:07;;;;;;;19.30;11.43;;;;;;;;;;738738;190;815296;-66
2023/08/02 03:26:33;;;;;;;18.13;11.93;;;;;;;;;;736969;190;918843;-67
2023/08/02 03:28:59;;;;;;;19.00;11.83;;;;;;;;;;737265;190;918351;-66
2023/08/02 03:31:25;;;;;;;15.17;11.53;;;;;;;;;;735571;190;919328;-66
2023/08/02 03:33:51;;;;;;;19.10;12.23;;;;;;;;;;738162;190;919727;-66
2023/08/02 03:36:16;;;;;;;19.37;12.37;;;;;;;;;;736010;190;919815;-66
2023/08/02 03:38:42;;;;;;;17.50;11.77;;;;;;;;;;736993;190;919357;-66
2023/08/02 03:41:08;;;;;;;18.50;12.63;;;;;;;;;;738260;190;915728;-59
2023/08/02 03:43:34;;;;;;;16.70;11.57;;;;;;;;;;736212;190;919613;-59
2023/08/02 03:46:00;;;;;;;15.75;11.48;;;;;;;;;;737238;190;933218;-67
2023/08/02 03:48:28;;;;;;;18.87;12.43;;;;;;;;;;742292;190;816702;-59
2023/08/02 03:50:51;;;;;;;17.07;11.80;;;;;;;;;;738840;190;858779;-60
2023/08/02 03:53:17;;;;;;;16.83;11.40;;;;;;;;;;738976;189;818013;-68
2023/08/02 03:55:43;;;;;;;15.03;10.27;;;;;;;;;;740241;190;919819;-66
2023/08/02 03:58:09;;;;;;;17.73;10.50;;;;;;;;;;747751;186;917250;-66
2023/08/02 04:00:35;;;;;;;18.40;10.40;;;;;;;;;;727701;191;919248;-66
2023/08/02 04:03:01;;;;;;;17.17;12.70;;;;;;;;;;737438;190;867349;-60
2023/08/02 04:05:27;;;;;;;19.17;12.70;;;;;;;;;;743282;191;818322;-67
2023/08/02 04:07:52;;;;;;;17.90;12.80;;;;;;;;;;735024;190;919702;-59
2023/08/02 04:10:18;;;;;;;19.53;12.50;;;;;;;;;;716544;194;881177;-59
2023/08/02 04:12:44;;;;;;;20.00;12.03;;;;;;;;;;727844;194;916702;-59
2023/08/02 04:15:10;;;;;;;19.80;11.30;;;;;;;;;;719472;194;919052;-60
2023/08/02 04:17:36;;;;;;;15.13;12.07;;;;;;;;;;735972;190;931893;-59
2023/08/02 04:20:02;;;;;;;16.30;11.27;;;;;;;;;;738481;190;915271;-66
2023/08/02 04:22:29;;;;;;;15.93;11.43;;;;;;;;;;748376;187;827069;-58
2023/08/02 04:24:55;;;;;;;15.53;10.40;;;;;;;;;;736941;190;916710;-59
2023/08/02 04:27:20;;;;;;;25.03;12.13;;;;;;;;;;737477;190;916451;-66
2023/08/02 04:29:46;;;;;;;14.93;11.37;;;;;;;;;;742879;190;822824;-59
2023/08/02 04:32:12;;;;;;;16.63;11.53;;;;;;;;;;737856;190;871571;-63
2023/08/02 04:34:38;;;;;;;15.33;11.10;;;;;;;;;;739550;189;820356;-59
2023/08/02 04:37:04;;;;;;;15.00;11.20;;;;;;;;;;742520;190;920717;-59
2023/08/02 04:39:30;;;;;;;14.90;11.40;;;;;;;;;;738694;190;818535;-59
2023/08/02 04:41:56;;;;;;;16.43;11.27;;;;;;;;;;737809;190;919841;-59
2023/08/02 04:44:22;;;;;;;13.35;10.30;;;;;;;;;;741270;190;918657;-59
2023/08/02 04:46:48;;;;;;;15.93;10.20;;;;;;;;;;740880;190;917568;-67
2023/08/02 04:49:14;;;;;;;16.17;10.00;;;;;;;;;;735903;190;916237;-66
2023/08/02 04:51:40;;;;;;;13.70;10.60;;;;;;;;;;736874;190;919057;-59
2023/08/02 04:54:05;;;;;;;15.13;10.03;;;;;;;;;;741367;190;919460;-59
2023/08/02 04:56:31;;;;;;;12.70;10.50;;;;;;;;;;737806;190;918572;-59
2023/08/02 04:58:57;;;;;;;14.80;10.70;;;;;;;;;;737752;190;914232;-59
2023/08/02 05:01:23;;;;;;;14.17;11.13;;;;;;;;;;742270;190;918553;-69
2023/08/02 05:03:49;;;;;;;14.00;9.90;;;;;;;;;;739070;189;812307;-66
2023/08/02 05:06:15;;;;;;;16.30;11.27;;;;;;;;;;737792;189;922610;-59
2023/08/02 05:08:40;;;;;;;16.37;10.43;;;;;;;;;;744145;190;919003;-59
2023/08/02 05:11:06;;;;;;;15.67;11.37;;;;;;;;;;739417;190;921965;-66
2023/08/02 05:13:32;;;;;;;13.20;10.67;;;;;;;;;;737873;190;920064;-68
2023/08/02 05:15:58;;;;;;;14.83;11.70;;;;;;;;;;738502;190;921200;-66
2023/08/02 05:18:24;;;;;;;15.77;10.50;;;;;;;;;;741733;190;918586;-66
2023/08/02 05:20:50;;;;;;;12.93;9.40;;;;;;;;;;739986;189;920480;-60
2023/08/02 05:23:16;;;;;;;12.83;9.73;;;;;;;;;;737503;188;921232;-69
2023/08/02 05:25:41;;;;;;;10.30;8.03;;;;;;;;;;743773;190;816626;-67
2023/08/02 05:28:07;;;;;;;11.63;6.90;;;;;;;;;;736314;190;921503;-66
2023/08/02 05:30:33;;;;;;;9.13;6.40;;;;;;;;;;738864;190;919517;-59
2023/08/02 05:32:59;;;;;;;9.33;5.70;;;;;;;;;;742048;190;816790;-59
2023/08/02 05:35:25;;;;;;;5.60;4.50;;;;;;;;;;737291;190;891659;-67
2023/08/02 05:37:51;;;;;;;10.63;5.60;;;;;;;;;;738518;190;917477;-59
2023/08/02 05:40:16;;;;;;;5.25;4.07;;;;;;;;;;736347;190;919407;-67
2023/08/02 05:42:42;;;;;;;6.70;4.90;;;;;;;;;;734215;190;916296;-59
2023/08/02 05:45:09;;;;;;;5.80;3.93;;;;;;;;;;737167;190;922032;-59
2023/08/02 05:47:34;;;;;;;5.40;4.17;;;;;;;;;;738225;190;919648;-59
2023/08/02 05:50:00;;;;;;;5.63;4.17;;;;;;;;;;741705;190;917829;-59
2023/08/02 05:52:26;;;;;;;5.73;3.23;;;;;;;;;;739654;190;881991;-66
2023/08/02 05:54:52;;;;;;;5.27;3.37;;;;;;;;;;736828;190;816540;-59
2023/08/02 05:57:18;;;;;;;7.00;3.43;;;;;;;;;;739654;190;916030;-59
2023/08/02 05:59:44;;;;;;;6.47;3.40;;;;;;;;;;739031;190;819730;-59
2023/08/02 06:02:09;;;;;;;4.87;3.50;;;;;;;;;;737533;190;920315;-60
2023/08/02 06:04:36;;;;;;;5.68;3.37;;;;;;;;;;735936;190;816722;-60
2023/08/02 06:07:02;;;;;;;7.77;3.30;;;;;;;;;;736854;190;813782;-59
2023/08/02 06:09:28;;;;;;;4.87;3.60;;;;;;;;;;737880;190;923334;-59
2023/08/02 06:11:54;;;;;;;6.07;3.30;;;;;;;;;;738831;190;833005;-66
2023/08/02 06:14:19;;;;;;;5.23;3.30;;;;;;;;;;740868;190;819443;-67
2023/08/02 06:16:45;;;;;;;7.30;3.37;;;;;;;;;;739666;188;917310;-59
2023/08/02 06:19:11;;;;;;;9.85;3.20;;;;;;;;;;740919;190;939080;-67
2023/08/02 06:21:37;;;;;;;3.80;2.60;;;;;;;;;;743091;190;918017;-59
2023/08/02 06:24:03;;;;;;;6.00;2.87;;;;;;;;;;737378;190;909045;-59
2023/08/02 06:26:29;;;;;;;4.30;2.90;;;;;;;;;;738634;189;917219;-66
2023/08/02 06:28:55;;;;;;;4.40;2.70;;;;;;;;;;744149;188;917907;-67
2023/08/02 06:31:20;;;;;;;3.20;2.00;;;;;;;;;;737503;190;918357;-65
2023/08/02 06:33:46;;;;;;;5.40;2.50;;;;;;;;;;738090;190;934023;-66
2023/08/02 06:36:12;;;;;;;23.33;4.67;;;;;;;;;;737681;190;923071;-59
2023/08/02 06:38:38;;;;;;;3.87;2.27;;;;;;;;;;741274;190;919432;-59
2023/08/02 06:41:04;;;;;;;5.90;2.30;;;;;;;;;;738244;190;918880;-66
2023/08/02 06:43:30;;;;;;;5.45;3.25;;;;;;;;;;731971;189;921266;-65
2023/08/02 06:45:57;;;;;;;5.73;2.60;;;;;;;;;;737261;192;920695;-66
2023/08/02 06:48:21;;;;;;;5.63;2.47;;;;;;;;;;737789;188;919915;-66
2023/08/02 06:50:47;;;;;;;4.10;2.42;;;;;;;;;;738762;189;871361;-57
2023/08/02 06:53:13;;;;;;;7.90;2.80;;;;;;;;;;742851;190;925234;-65
2023/08/02 06:55:39;;;;;;;7.70;2.70;;;;;;;;;;737512;190;919256;-64
2023/08/02 06:58:05;;;;;;;5.20;2.40;;;;;;;;;;737804;190;928747;-65
2023/08/02 07:00:32;;;;;;;4.10;2.20;;;;;;;;;;736449;190;925174;-63
2023/08/02 07:02:59;;;;;;;5.13;2.23;;;;;;;;;;748254;187;882100;-62
2023/08/02 07:05:28;;;;;;;5.60;3.00;;;;;;;;;;738007;190;816563;-64
2023/08/02 07:07:51;;;;;;;3.00;1.90;;;;;;;;;;738705;190;918223;-64
2023/08/02 07:10:17;;;;;;;4.30;2.47;;;;;;;;;;743606;190;883046;-63
2023/08/02 07:12:43;;;;;;;4.50;2.37;;;;;;;;;;738727;190;814488;-64
2023/08/02 07:15:09;;;;;;;3.87;2.50;;;;;;;;;;737225;190;919408;-57
2023/08/02 07:17:35;;;;;;;5.20;2.80;;;;;;;;;;742536;188;916056;-59
2023/08/02 07:20:01;;;;;;;4.13;2.10;;;;;;;;;;736123;190;912353;-66
2023/08/02 07:22:27;;;;;;;5.63;2.17;;;;;;;;;;737000;190;918537;-65
2023/08/02 07:24:52;;;;;;;5.97;2.30;;;;;;;;;;737560;190;919576;-58
2023/08/02 07:27:18;;;;;;;4.20;2.47;;;;;;;;;;742549;188;919067;-64
2023/08/02 07:29:44;;;;;;;7.20;2.30;;;;;;;;;;738520;190;919428;-63
2023/08/02 07:32:10;;;;;;;7.00;2.40;;;;;;;;;;738132;190;929014;-64
2023/08/02 07:34:36;;;;;;;5.47;2.40;;;;;;;;;;743842;190;920907;-65
2023/08/02 07:37:02;;;;;;;6.97;2.10;;;;;;;;;;739510;190;944748;-66
2023/08/02 07:39:27;;;;;;;3.40;2.13;;;;;;;;;;738496;190;831657;-63
2023/08/02 07:41:53;;;;;;;4.87;2.37;;;;;;;;;;743276;190;919078;-63
2023/08/02 07:44:19;;;;;;;5.87;2.10;;;;;;;;;;741711;190;918811;-58
2023/08/02 07:46:45;;;;;;;4.63;2.00;;;;;;;;;;738563;190;816283;-64
2023/08/02 07:49:11;;;;;;;5.40;2.20;;;;;;;;;;737289;190;921791;-63
2023/08/02 07:51:37;;;;;;;8.40;2.27;;;;;;;;;;745507;188;917934;-58
2023/08/02 07:54:02;;;;;;;3.23;1.83;;;;;;;;;;737313;190;1536290;-58
2023/08/02 07:56:28;;;;;;;4.73;1.47;;;;;;;;;;737348;190;918951;-65
2023/08/02 07:58:54;;;;;;;2.80;1.70;;;;;;;;;;742729;190;916823;-64
2023/08/02 08:01:20;;;;;;;3.50;2.40;;;;;;;;;;738185;190;919464;-63
2023/08/02 08:03:46;;;;;;;3.72;2.05;;;;;;;;;;736182;190;918468;-63
2023/08/02 08:06:12;;;;;;;4.10;2.00;;;;;;;;;;742710;190;920137;-59
2023/08/02 08:08:38;;;;;;;3.73;1.90;;;;;;;;;;737326;189;918982;-58
2023/08/02 08:11:04;;;;;;;7.83;2.00;;;;;;;;;;738628;190;932759;-64
2023/08/02 08:13:29;;;;;;;9.07;2.30;;;;;;;;;;741995;190;915430;-64
2023/08/02 08:15:55;;;;;;;4.70;2.27;;;;;;;;;;736681;190;1019617;-64
2023/08/02 08:18:21;;;;;;;3.97;1.83;;;;;;;;;;738544;190;817369;-58
2023/08/02 08:20:47;;;;;;;5.47;2.07;;;;;;;;;;737541;190;921601;-58
2023/08/02 08:23:13;;;;;;;7.67;2.87;;;;;;;;;;741506;190;918224;-65
2023/08/02 08:25:39;;;;;;;4.80;1.80;;;;;;;;;;738080;190;920466;-64
2023/08/02 08:28:04;;;;;;;5.10;2.20;;;;;;;;;;739139;190;916918;-64
2023/08/02 08:30:30;;;;;;;4.07;2.20;;;;;;;;;;742456;190;830685;-58
2023/08/02 08:32:56;;;;;;;5.90;2.10;;;;;;;;;;738954;190;914762;-58
2023/08/02 08:35:22;;;;;;;4.90;2.30;;;;;;;;;;737294;190;915808;-57
2023/08/02 08:37:49;;;;;;;5.70;2.60;;;;;;;;;;737750;190;817032;-58
2023/08/02 08:40:14;;;;;;;8.10;2.20;;;;;;;;;;739400;188;919167;-58
2023/08/02 08:42:56;;;;;;;4.13;2.00;;;;;;;;;;738614;190;918889;-57
2023/08/02 08:45:22;;;;;;;5.17;2.13;;;;;;;;;;746067;182;918525;-72
2023/08/02 08:47:48;;;;;;;5.22;2.10;;;;;;;;;;744575;189;816198;-72
2023/08/02 08:50:14;;;;;;;4.63;1.70;;;;;;;;;;743790;186;816681;-72
2023/08/02 08:52:40;;;;;;;4.33;1.80;;;;;;;;;;735566;188;946289;-72
2023/08/02 08:55:07;;;;;;;7.93;2.73;;;;;;;;;;733807;191;917308;-72
2023/08/02 08:57:33;;;;;;;4.50;2.40;;;;;;;;;;740347;191;824741;-72
2023/08/02 08:59:59;;;;;;;5.60;3.23;;;;;;;;;;734947;190;933900;-73
2023/08/02 09:02:25;;;;;;;5.27;1.93;;;;;;;;;;737946;190;919460;-73
2023/08/02 09:04:50;;;;;;;3.33;2.00;;;;;;;;;;740815;190;918458;-72
2023/08/02 09:07:16;;;;;;;8.73;2.10;;;;;;;;;;736342;190;914814;-73
2023/08/02 09:09:42;;;;;;;5.90;2.10;;;;;;;;;;735060;190;919884;-72
2023/08/02 09:12:08;;;;;;;9.30;1.80;;;;;;;;;;735173;189;918437;-72
2023/08/02 09:14:34;;;;;;;5.30;2.17;;;;;;;;;;743932;184;933103;-72
2023/08/02 09:17:01;;;;;;;3.60;2.00;;;;;;;;;;731144;191;915041;-72
2023/08/02 09:19:27;;;;;;;3.58;1.90;;;;;;;;;;722702;193;1034529;-72
2023/08/02 09:21:58;;;;;;;4.00;2.17;;;;;;;;;;741031;190;816672;-73
2023/08/02 09:24:24;;;;;;;4.97;2.20;;;;;;;;;;736119;189;919390;-72
2023/08/02 09:26:50;;;;;;;6.00;1.87;;;;;;;;;;735200;190;1021440;-72
2023/08/02 09:29:16;;;;;;;3.00;1.60;;;;;;;;;;729113;186;1126123;-59
2023/08/02 09:31:42;;;;;;;3.43;1.67;;;;;;;;;;728387;189;915154;-65
2023/08/02 09:34:08;;;;;;;3.87;1.80;;;;;;;;;;742438;187;923762;-59
2023/08/02 09:36:34;;;;;;;4.50;2.30;;;;;;;;;;734899;190;915987;-59
2023/08/02 09:39:01;;;;;;;2.70;1.57;;;;;;;;;;746376;188;914629;-59
2023/08/02 09:41:27;;;;;;;3.43;1.83;;;;;;;;;;746175;184;915784;-66
2023/08/02 09:43:53;;;;;;;5.87;2.03;;;;;;;;;;740185;187;934602;-66
2023/08/02 09:46:23;;;;;;;2.83;1.80;;;;;;;;;;745509;187;919878;-59
2023/08/02 09:48:48;;;;;;;5.50;2.20;;;;;;;;;;748013;187;814656;-59
2023/08/02 09:51:14;;;;;;;6.57;1.50;;;;;;;;;;727822;188;917427;-68
2023/08/02 09:53:40;;;;;;;4.93;1.70;;;;;;;;;;738937;188;918724;-59
2023/08/02 09:56:06;;;;;;;7.17;1.87;;;;;;;;;;748566;187;919665;-66
2023/08/02 09:58:32;;;;;;;5.10;1.97;;;;;;;;;;741865;187;915929;-58
2023/08/02 10:00:57;;;;;;;3.53;1.83;;;;;;;;;;730944;190;919959;-65
2023/08/02 10:03:26;;;;;;;4.50;2.00;;;;;;;;;;745799;187;917735;-64
2023/08/02 10:05:49;;;;;;;5.23;1.90;;;;;;;;;;740361;187;920710;-65
2023/08/02 10:08:15;;;;;;;4.70;2.53;;;;;;;;;;745354;188;919764;-58
2023/08/02 10:10:41;;;;;;;4.40;2.03;;;;;;;;;;750513;188;919447;-66
2023/08/02 10:13:08;;;;;;;5.57;1.90;;;;;;;;;;740705;187;918886;-58
2023/08/02 10:15:34;;;;;;;5.93;1.97;;;;;;;;;;732521;187;920610;-64
2023/08/02 10:17:59;;;;;;;2.90;1.97;;;;;;;;;;743738;187;919915;-67
2023/08/02 10:20:25;;;;;;;5.90;2.00;;;;;;;;;;752047;186;629361;-67
2023/08/02 10:22:51;;;;;;;8.80;2.10;;;;;;;;;;738536;188;629618;-66
2023/08/02 10:25:17;;;;;;;3.90;1.70;;;;;;;;;;746965;187;631411;-57
2023/08/02 10:27:43;;;;;;;6.70;2.13;;;;;;;;;;746197;188;814512;-66
2023/08/02 10:30:09;;;;;;;3.30;1.53;;;;;;;;;;734502;188;920153;-58
2023/08/02 10:32:35;;;;;;;5.40;1.80;;;;;;;;;;740961;188;924284;-57
2023/08/02 10:35:01;;;;;;;3.93;1.93;;;;;;;;;;740323;187;654099;-66
2023/08/02 10:37:27;;;;;;;3.43;1.80;;;;;;;;;;743085;188;920720;-67
2023/08/02 10:39:53;;;;;;;3.60;1.60;;;;;;;;;;737523;188;619236;-68
2023/08/02 10:42:19;;;;;;;4.30;1.83;;;;;;;;;;733565;189;819268;-67
2023/08/02 10:45:04;;;;;;;6.70;1.77;;;;;;;;;;743969;187;917300;-58
2023/08/02 10:47:32;;;;;;;3.90;1.67;;;;;;;;;;747407;187;904759;-58
2023/08/02 10:49:58;;;;;;;5.80;2.50;;;;;;;;;;735689;189;920023;-59
2023/08/02 10:52:30;;;;;;;4.87;1.70;;;;;;;;;;737717;188;920234;-58
2023/08/02 10:55:02;;;;;;;5.17;1.90;;;;;;;;;;735143;187;919716;-67
2023/08/02 10:57:28;;;;;;;3.23;1.70;;;;;;;;;;743139;188;920322;-68
2023/08/02 10:59:53;;;;;;;4.57;1.77;;;;;;;;;;740069;187;918385;-69
2023/08/02 11:02:19;;;;;;;4.10;1.87;;;;;;;;;;737978;188;805069;-69
2023/08/02 11:04:45;;;;;;;3.10;1.60;;;;;;;;;;753705;183;633763;-67
2023/08/02 11:07:12;;;;;;;3.50;1.70;;;;;;;;;;740902;186;918804;-58
2023/08/02 11:09:37;;;;;;;5.10;1.77;;;;;;;;;;741810;186;919951;-59
2023/08/02 11:12:10;;;;;;;6.77;1.90;;;;;;;;;;744059;186;637833;-59
2023/08/02 11:14:36;;;;;;;2.87;1.50;;;;;;;;;;749907;187;634390;-67
2023/08/02 11:17:01;;;;;;;2.93;1.40;;;;;;;;;;741269;187;917658;-58
2023/08/02 11:19:29;;;;;;;4.37;1.60;;;;;;;;;;739170;187;916584;-68
2023/08/02 11:21:53;;;;;;;3.17;1.57;;;;;;;;;;745559;187;818524;-68
2023/08/02 11:24:19;;;;;;;7.27;1.90;;;;;;;;;;746283;186;619634;-59
2023/08/02 11:26:45;;;;;;;3.45;1.87;;;;;;;;;;738067;188;929488;-68
2023/08/02 11:29:10;;;;;;;3.33;1.40;;;;;;;;;;735132;189;912173;-58
2023/08/02 11:31:36;;;;;;;4.77;1.80;;;;;;;;;;746807;187;928926;-66
2023/08/02 11:34:02;;;;;;;4.50;1.60;;;;;;;;;;732337;188;1007395;-59
2023/08/02 11:36:28;;;;;;;2.97;1.57;;;;;;;;;;743276;187;935471;-68
2023/08/02 11:38:54;;;;;;;4.50;2.10;;;;;;;;;;744722;188;919216;-58
2023/08/02 11:41:20;;;;;;;5.00;2.30;;;;;;;;;;741260;188;914296;-58
2023/08/02 11:43:46;;;;;;;5.07;2.20;;;;;;;;;;743496;188;637446;-58
2023/08/02 11:46:11;;;;;;;3.17;1.60;;;;;;;;;;747103;188;637058;-58
2023/08/02 11:48:37;;;;;;;2.97;1.75;;;;;;;;;;745434;188;672594;-58
2023/08/02 11:51:03;;;;;;;6.67;2.00;;;;;;;;;;737918;188;1147132;-69
2023/08/02 11:53:29;;;;;;;4.90;1.77;;;;;;;;;;747259;187;920760;-60
2023/08/02 11:55:55;;;;;;;3.17;1.50;;;;;;;;;;750470;187;915149;-58
2023/08/02 11:58:21;;;;;;;3.50;1.80;;;;;;;;;;742539;187;922830;-58
2023/08/02 12:00:47;;;;;;;7.28;2.10;;;;;;;;;;739899;187;910604;-59
2023/08/02 12:03:13;;;;;;;4.27;1.97;;;;;;;;;;741502;187;914730;-59
2023/08/02 12:05:38;;;;;;;3.67;2.17;;;;;;;;;;738664;188;916336;-58
2023/08/02 12:08:17;;;;;;;4.80;2.23;;;;;;;;;;739274;188;859972;-59
2023/08/02 12:10:41;;;;;;;6.40;2.00;;;;;;;;;;733063;188;919575;-59
2023/08/02 12:13:07;;;;;;;3.30;1.70;;;;;;;;;;741763;185;869398;-68
2023/08/02 12:15:33;;;;;;;9.03;1.87;;;;;;;;;;740840;186;917419;-58
2023/08/02 12:18:01;;;;;;;7.12;2.47;;;;;;;;;;740148;187;1080313;-58
2023/08/02 12:20:28;;;;;;;3.63;2.20;;;;;;;;;;746169;187;919407;-58
2023/08/02 12:22:54;;;;;;;3.40;2.20;;;;;;;;;;746470;183;932925;-58
2023/08/02 12:25:19;;;;;;;5.37;2.00;;;;;;;;;;743868;185;918680;-58
2023/08/02 12:28:00;;;;;;;2.97;1.80;;;;;;;;;;742925;188;918957;-67
2023/08/02 12:30:26;;;;;;;3.70;2.00;;;;;;;;;;739487;187;917985;-59
2023/08/02 12:32:52;;;;;;;3.23;2.07;;;;;;;;;;742728;187;920961;-68
2023/08/02 12:35:18;;;;;;;4.00;2.17;;;;;;;;;;734963;187;823407;-66
2023/08/02 12:37:47;;;;;;;5.60;1.90;;;;;;;;;;738350;187;918813;-69
2023/08/02 12:40:10;;;;;;;6.73;2.00;;;;;;;;;;748341;188;919568;-67
2023/08/02 12:42:36;;;;;;;3.83;1.87;;;;;;;;;;741054;187;919558;-66
2023/08/02 12:45:03;;;;;;;4.07;2.00;;;;;;;;;;742660;187;1021707;-67
2023/08/02 12:47:28;;;;;;;3.83;1.87;;;;;;;;;;746633;188;918069;-68
2023/08/02 12:49:53;;;;;;;3.60;1.97;;;;;;;;;;732709;188;913211;-68
2023/08/02 12:52:19;;;;;;;3.53;2.00;;;;;;;;;;736174;188;878831;-66
2023/08/02 12:54:45;;;;;;;4.60;1.93;;;;;;;;;;741471;187;874030;-68
2023/08/02 12:57:11;;;;;;;2.87;1.63;;;;;;;;;;745525;188;900867;-68
2023/08/02 12:59:37;;;;;;;4.10;1.90;;;;;;;;;;739982;188;1058952;-59
2023/08/02 13:02:03;;;;;;;4.80;1.97;;;;;;;;;;742793;187;928179;-66
2023/08/02 13:04:28;;;;;;;4.37;1.77;;;;;;;;;;744484;187;934057;-68
2023/08/02 13:06:57;;;;;;;5.43;2.43;;;;;;;;;;738498;188;903251;-58
2023/08/02 13:09:20;;;;;;;3.67;2.00;;;;;;;;;;736744;188;913509;-59
2023/08/02 13:11:46;;;;;;;4.57;1.73;;;;;;;;;;745388;184;1120636;-58
2023/08/02 13:14:12;;;;;;;5.70;1.60;;;;;;;;;;731036;188;924251;-58
2023/08/02 13:16:38;;;;;;;5.57;2.30;;;;;;;;;;740427;187;907419;-59
2023/08/02 13:19:04;;;;;;;4.60;1.90;;;;;;;;;;742328;187;904145;-58
2023/08/02 13:21:29;;;;;;;3.17;1.60;;;;;;;;;;744485;187;916641;-65
2023/08/02 13:23:55;;;;;;;3.53;1.90;;;;;;;;;;739724;188;919605;-68
2023/08/02 13:26:21;;;;;;;4.80;1.80;;;;;;;;;;738794;187;1125479;-66
2023/08/02 13:28:47;;;;;;;4.50;2.23;;;;;;;;;;743479;188;714533;-69
2023/08/02 13:31:13;;;;;;;3.77;2.10;;;;;;;;;;737568;188;843588;-68
2023/08/02 13:33:41;;;;;;;3.93;2.63;;;;;;;;;;743754;187;941413;-68
2023/08/02 13:36:08;;;;;;;4.40;2.00;;;;;;;;;;743230;187;918920;-68
2023/08/02 13:38:34;;;;;;;6.23;2.13;;;;;;;;;;740040;187;916768;-59
2023/08/02 13:41:00;;;;;;;5.87;2.40;;;;;;;;;;745935;186;916928;-59
2023/08/02 13:43:26;;;;;;;5.43;1.80;;;;;;;;;;747741;188;919791;-68
2023/08/02 13:45:51;;;;;;;4.72;2.28;;;;;;;;;;738947;187;918828;-69
2023/08/02 13:48:17;;;;;;;3.00;1.90;;;;;;;;;;737119;187;918776;-59
2023/08/02 13:50:43;;;;;;;4.63;2.07;;;;;;;;;;743192;187;918291;-59
2023/08/02 13:53:09;;;;;;;5.37;2.17;;;;;;;;;;742781;187;920169;-59
2023/08/02 13:55:35;;;;;;;3.60;1.87;;;;;;;;;;737207;187;915690;-70
2023/08/02 13:58:01;;;;;;;3.60;2.28;;;;;;;;;;738069;188;919419;-59
2023/08/02 14:00:26;;;;;;;4.87;2.20;;;;;;;;;;744793;187;804773;-68
2023/08/02 14:02:52;;;;;;;3.60;2.03;;;;;;;;;;738267;188;919390;-59
2023/08/02 14:05:18;;;;;;;3.60;1.90;;;;;;;;;;739473;188;915346;-60
2023/08/02 14:07:44;;;;;;;4.17;2.03;;;;;;;;;;739403;188;916924;-68
2023/08/02 14:10:10;;;;;;;4.68;2.00;;;;;;;;;;739430;188;911872;-71
2023/08/02 14:12:36;;;;;;;4.97;2.23;;;;;;;;;;735929;187;919485;-70
2023/08/02 14:15:02;;;;;;;4.40;1.93;;;;;;;;;;734136;188;919201;-59